LNG Imo — ZCDT6 — position and weather

sailwx.info

Track history (hours):
 
Tides and Currents Weather Stations Pressure Air Temp Water Temp Dewpoint Dewpoint Depression Visibility Wind Speed Wind Dir Waves Ship Positions

LNG Imo

Last reported at 2016-May-26 04:33 UTC. Time now 2016-May-30 08:48 UTC.
Position N 31°24' E 032°19'.

Length 288 m; draft 11.4 m.

Type: Ship (hazmat cat D). MMSI: 310565000.

Date/timePositionNaut miles runAvg speedWind from/ knotsBaromVisibWave heightAir tempDewpointWater temp
2016-May-26 04:33N 31°24' E 032°19'2 0.4
2016-May-25 23:31N 31°25' E 032°16'0 0.0
2016-May-25 22:31N 31°25' E 032°16'0 0.0
2016-May-25 21:31N 31°25' E 032°16'0 0.1
2016-May-25 19:04N 31°24' E 032°16'0 0.1
2016-May-25 18:25N 31°24' E 032°16'8711.0
2016-May-25 10:28N 32°11' E 030°49'3116.3
2016-May-25 08:33N 32°22' E 030°15'6616.5
2016-May-25 04:32N 32°35' E 028°58'66915.9
2016-May-23 10:24N 34°49' E 015°50'6615.6
2016-May-23 06:11N 35°22' E 014°40'1215.8
2016-May-23 05:24N 35°30' E 014°28'1416.1
2016-May-23 04:33N 35°38' E 014°15'1816.0
2016-May-23 03:24N 35°49' E 013°57'1416.0
2016-May-23 02:34N 35°58' E 013°45'1615.7
2016-May-23 01:33N 36°08' E 013°30'1515.3
2016-May-23 00:33N 36°18' E 013°15'1615.5
2016-May-22 23:33N 36°26' E 012°59'1616.0
2016-May-22 22:33N 36°35' E 012°42'1616.0
2016-May-22 21:33N 36°44' E 012°25'1615.9
2016-May-22 20:33N 36°52' E 012°09'1616.1
2016-May-22 19:33N 37°01' E 011°52'1616.3
2016-May-22 18:33N 37°10' E 011°35'1515.4
2016-May-22 17:33N 37°19' E 011°19'1615.7
2016-May-22 16:33N 37°26' E 011°02'1615.7
2016-May-22 15:33N 37°31' E 010°43'1715.4
2016-May-22 14:29N 37°33' E 010°22'32416.0
2016-May-21 18:13N 37°07' E 003°36'1115.8
2016-May-21 17:31N 37°06' E 003°22'1616.3
2016-May-21 16:33N 37°04' E 003°03'1616.3
2016-May-21 15:32N 37°01' E 002°42'1616.1
2016-May-21 14:33N 36°58' E 002°23'1616.2
2016-May-21 13:33N 36°55' E 002°03'1917.0
2016-May-21 12:26N 36°52' E 001°39'1516.5
2016-May-21 11:33N 36°48' E 001°22'3316.5
2016-May-21 09:32N 36°42' E 000°41'1616.5
2016-May-21 08:33N 36°39' E 000°21'4815.9
2016-May-21 05:32N 36°30' W 000°37'3415.8
2016-May-21 03:23N 36°24' W 001°19'18915.7
2016-May-20 15:22N 36°02' W 005°11'1011.8
2016-May-20 14:33N 36°05' W 005°23'0 0.2
2016-May-20 13:33N 36°05' W 005°23'0 0.3
2016-May-20 12:33N 36°05' W 005°23'3 2.6
2016-May-20 11:22N 36°04' W 005°20'4 4.5
2016-May-20 10:34N 36°01' W 005°17'1110.9
2016-May-20 09:34N 35°58' W 005°30'5213.0
2016-May-20 05:33N 35°31' W 006°25'1716.7
2016-May-20 04:33N 35°19' W 006°39'1717.0
2016-May-20 03:33N 35°07' W 006°54'  
2016-May-16 22:32N 16°13' W 018°18'1818.3
2016-May-16 21:34N 15°55' W 018°18'2218.5
2016-May-16 20:22N 15°33' W 018°18'1518.0
2016-May-16 19:32N 15°18' W 018°18'2117.9
2016-May-16 18:21N 14°57' W 018°18'1618.1
2016-May-16 17:28N 14°41' W 018°18'1617.9
2016-May-16 16:33N 14°24' W 018°18'1817.9
2016-May-16 15:34N 14°06' W 018°18'  
Track history (hours):
 
Tides and Currents Weather Stations Pressure Air Temp Water Temp Dewpoint Dewpoint Depression Visibility Wind Speed Wind Dir Waves Ship Positions

LNG Imo

Last reported at 2016-May-26 04:33 UTC. Time now 2016-May-30 08:48 UTC.
Position N 31°24' E 032°19'.

Length 288 m; draft 11.4 m.

Type: Ship (hazmat cat D). MMSI: 310565000.

Date/timePositionNaut miles runAvg speedWind from/ knotsBaromVisibWave heightAir tempDewpointWater temp
2016-May-26 04:33N 31°24' E 032°19'2 0.4
2016-May-25 23:31N 31°25' E 032°16'0 0.0
2016-May-25 22:31N 31°25' E 032°16'0 0.0
2016-May-25 21:31N 31°25' E 032°16'0 0.1
2016-May-25 19:04N 31°24' E 032°16'0 0.1
2016-May-25 18:25N 31°24' E 032°16'8711.0
2016-May-25 10:28N 32°11' E 030°49'3116.3
2016-May-25 08:33N 32°22' E 030°15'6616.5
2016-May-25 04:32N 32°35' E 028°58'66915.9
2016-May-23 10:24N 34°49' E 015°50'6615.6
2016-May-23 06:11N 35°22' E 014°40'1215.8
2016-May-23 05:24N 35°30' E 014°28'1416.1
2016-May-23 04:33N 35°38' E 014°15'1816.0
2016-May-23 03:24N 35°49' E 013°57'1416.0
2016-May-23 02:34N 35°58' E 013°45'1615.7
2016-May-23 01:33N 36°08' E 013°30'1515.3
2016-May-23 00:33N 36°18' E 013°15'1615.5
2016-May-22 23:33N 36°26' E 012°59'1616.0
2016-May-22 22:33N 36°35' E 012°42'1616.0
2016-May-22 21:33N 36°44' E 012°25'1615.9
2016-May-22 20:33N 36°52' E 012°09'1616.1
2016-May-22 19:33N 37°01' E 011°52'1616.3
2016-May-22 18:33N 37°10' E 011°35'1515.4
2016-May-22 17:33N 37°19' E 011°19'1615.7
2016-May-22 16:33N 37°26' E 011°02'1615.7
2016-May-22 15:33N 37°31' E 010°43'1715.4
2016-May-22 14:29N 37°33' E 010°22'32416.0
2016-May-21 18:13N 37°07' E 003°36'1115.8
2016-May-21 17:31N 37°06' E 003°22'1616.3
2016-May-21 16:33N 37°04' E 003°03'1616.3
2016-May-21 15:32N 37°01' E 002°42'1616.1
2016-May-21 14:33N 36°58' E 002°23'1616.2
2016-May-21 13:33N 36°55' E 002°03'1917.0
2016-May-21 12:26N 36°52' E 001°39'1516.5
2016-May-21 11:33N 36°48' E 001°22'3316.5
2016-May-21 09:32N 36°42' E 000°41'1616.5
2016-May-21 08:33N 36°39' E 000°21'4815.9
2016-May-21 05:32N 36°30' W 000°37'3415.8
2016-May-21 03:23N 36°24' W 001°19'18915.7
2016-May-20 15:22N 36°02' W 005°11'1011.8
2016-May-20 14:33N 36°05' W 005°23'0 0.2
2016-May-20 13:33N 36°05' W 005°23'0 0.3
2016-May-20 12:33N 36°05' W 005°23'3 2.6
2016-May-20 11:22N 36°04' W 005°20'4 4.5
2016-May-20 10:34N 36°01' W 005°17'1110.9
2016-May-20 09:34N 35°58' W 005°30'5213.0
2016-May-20 05:33N 35°31' W 006°25'1716.7
2016-May-20 04:33N 35°19' W 006°39'1717.0
2016-May-20 03:33N 35°07' W 006°54'  
2016-May-16 22:32N 16°13' W 018°18'1818.3
2016-May-16 21:34N 15°55' W 018°18'2218.5
2016-May-16 20:22N 15°33' W 018°18'1518.0
2016-May-16 19:32N 15°18' W 018°18'2117.9
2016-May-16 18:21N 14°57' W 018°18'1618.1
2016-May-16 17:28N 14°41' W 018°18'1617.9
2016-May-16 16:33N 14°24' W 018°18'1817.9
2016-May-16 15:34N 14°06' W 018°18'  

Dump ship's entire track history